createdAt,value
2022-09-07T00:00:26.399Z,5.45
2022-09-07T00:02:56.065Z,7.85
2022-09-07T00:05:28.237Z,5.07
2022-09-07T00:10:28.283Z,5.45
2022-09-07T00:12:57.595Z,5.78
2022-09-07T00:15:27.125Z,4.93
2022-09-07T00:17:56.527Z,7.88
2022-09-07T00:20:27.289Z,4.57
2022-09-07T00:22:56.852Z,3.35
2022-09-07T00:25:30.811Z,8.88
2022-09-07T00:28:01.778Z,5.35
2022-09-07T00:30:31.324Z,9.13
2022-09-07T00:33:00.867Z,7.72
2022-09-07T00:35:32.180Z,8.13
2022-09-07T00:38:01.805Z,3.73
2022-09-07T00:40:31.158Z,7.72
2022-09-07T00:43:00.766Z,6.45
2022-09-07T00:45:30.346Z,5.43
2022-09-07T00:48:02.610Z,10.45
2022-09-07T00:50:35.033Z,7.05
2022-09-07T00:53:06.161Z,9.93
2022-09-07T00:55:36.751Z,12.57
2022-09-07T00:58:06.805Z,7.70
2022-09-07T01:00:38.379Z,8.95
2022-09-07T01:03:08.423Z,10.07
2022-09-07T01:05:42.087Z,6.88
2022-09-07T01:08:12.218Z,11.07
2022-09-07T01:10:42.823Z,12.45
2022-09-07T01:13:12.304Z,8.07
2022-09-07T01:15:48.407Z,9.27
2022-09-07T01:18:23.657Z,6.25
2022-09-07T01:20:58.161Z,9.63
2022-09-07T01:23:49.495Z,10.98
2022-09-07T01:26:33.734Z,13.02
2022-09-07T01:29:06.764Z,11.32
2022-09-07T01:31:42.615Z,8.40
2022-09-07T01:34:16.140Z,11.90
2022-09-07T01:36:53.690Z,8.52
2022-09-07T01:39:25.884Z,7.22
2022-09-07T01:41:58.327Z,9.55
2022-09-07T01:44:32.461Z,10.98
2022-09-07T01:47:03.535Z,7.35
2022-09-07T01:49:36.970Z,8.52
2022-09-07T01:52:10.904Z,5.15
2022-09-07T01:54:44.479Z,9.57
2022-09-07T01:57:17.105Z,8.88
2022-09-07T01:59:50.589Z,10.32
2022-09-07T02:02:21.642Z,8.25
2022-09-07T02:04:52.531Z,7.88
2022-09-07T02:07:25.146Z,9.63
2022-09-07T02:09:57.104Z,10.07
2022-09-07T02:15:01.487Z,10.38
2022-09-07T02:17:34.006Z,11.45
2022-09-07T02:20:08.302Z,9.27
2022-09-07T02:22:40.598Z,17.98
2022-09-07T02:25:11.286Z,9.30
2022-09-07T02:27:43.171Z,15.55
2022-09-07T02:30:14.744Z,10.90
2022-09-07T02:32:44.144Z,17.75
2022-09-07T02:35:14.200Z,14.57
2022-09-07T02:37:44.521Z,8.93
2022-09-07T02:40:15.109Z,9.38
2022-09-07T02:42:45.125Z,14.23
2022-09-07T02:45:17.023Z,13.00
2022-09-07T02:47:59.451Z,12.68
2022-09-07T02:50:38.972Z,12.60
2022-09-07T02:53:23.380Z,12.75
2022-09-07T02:56:00.760Z,9.52
2022-09-07T02:58:36.034Z,15.35
2022-09-07T03:01:11.334Z,9.35
2022-09-07T03:03:44.293Z,12.70
2022-09-07T03:06:18.667Z,13.40
2022-09-07T03:08:50.901Z,10.80
2022-09-07T03:11:20.541Z,8.48
2022-09-07T03:13:49.945Z,11.65
2022-09-07T03:16:20.916Z,12.60
2022-09-07T03:18:50.381Z,7.80
2022-09-07T03:21:20.236Z,12.85
2022-09-07T03:23:51.832Z,10.63
2022-09-07T03:26:25.337Z,12.43
2022-09-07T03:28:55.185Z,18.20
2022-09-07T03:31:26.233Z,15.70
2022-09-07T03:33:56.722Z,15.32
2022-09-07T03:36:26.140Z,13.60
2022-09-07T03:38:55.386Z,13.80
2022-09-07T03:41:24.566Z,18.23
2022-09-07T03:43:54.228Z,14.23
2022-09-07T03:46:23.703Z,12.70
2022-09-07T03:48:54.428Z,14.23
2022-09-07T03:51:24.023Z,12.48
2022-09-07T03:53:56.321Z,13.20
2022-09-07T03:56:26.158Z,11.68
2022-09-07T03:58:55.925Z,13.38
2022-09-07T04:01:26.712Z,15.35
2022-09-07T04:04:02.261Z,13.52
2022-09-07T04:06:32.775Z,10.20
2022-09-07T04:09:03.958Z,14.50
2022-09-07T04:11:33.693Z,10.10
2022-09-07T04:14:03.399Z,20.70
2022-09-07T04:16:32.662Z,10.07
2022-09-07T04:19:04.081Z,14.77
2022-09-07T04:21:35.944Z,13.30
2022-09-07T04:24:06.243Z,17.10
2022-09-07T04:26:37.254Z,11.88
2022-09-07T04:29:07.119Z,11.75
2022-09-07T04:31:39.238Z,12.60
2022-09-07T04:34:10.245Z,11.45
2022-09-07T04:36:39.647Z,9.32
2022-09-07T04:39:09.257Z,12.65
2022-09-07T04:41:38.945Z,17.10
2022-09-07T04:44:08.504Z,8.50
2022-09-07T04:46:38.722Z,10.23
2022-09-07T04:49:11.796Z,11.68
2022-09-07T04:51:44.458Z,9.13
2022-09-07T04:54:14.207Z,8.88
2022-09-07T04:56:43.532Z,13.98
2022-09-07T04:59:14.802Z,12.50
2022-09-07T05:01:44.452Z,9.90
2022-09-07T05:04:14.271Z,12.80
2022-09-07T05:06:47.993Z,8.80
2022-09-07T05:09:17.700Z,10.02
2022-09-07T05:11:47.662Z,8.57
2022-09-07T05:14:17.183Z,13.02
2022-09-07T05:16:46.639Z,9.65
2022-09-07T05:19:16.395Z,6.60
2022-09-07T05:21:47.420Z,11.02
2022-09-07T05:24:16.904Z,10.93
2022-09-07T05:26:46.564Z,15.98
2022-09-07T05:32:05.652Z,13.05
2022-09-07T05:34:35.559Z,18.05
2022-09-07T05:37:07.884Z,10.52
2022-09-07T05:42:07.233Z,15.40
2022-09-07T05:44:44.992Z,20.08
2022-09-07T05:47:15.307Z,15.65
2022-09-07T05:49:44.934Z,13.05
2022-09-07T05:52:16.686Z,13.45
2022-09-07T05:54:47.397Z,14.57
2022-09-07T05:57:21.155Z,14.48
2022-09-07T05:59:50.882Z,15.05
2022-09-07T06:02:20.488Z,17.45
2022-09-07T06:04:57.363Z,11.23
2022-09-07T06:07:28.412Z,16.38
2022-09-07T06:12:50.118Z,9.45
2022-09-07T06:15:19.722Z,9.93
2022-09-07T06:17:49.197Z,11.48
2022-09-07T06:20:18.776Z,12.68
2022-09-07T06:22:51.990Z,9.02
2022-09-07T06:25:21.430Z,11.52
2022-09-07T06:27:57.861Z,10.18
2022-09-07T06:30:27.626Z,15.65
2022-09-07T06:32:57.155Z,7.57
2022-09-07T06:35:28.279Z,9.27
2022-09-07T06:38:01.010Z,6.22
2022-09-07T06:40:36.364Z,10.02
2022-09-07T06:43:07.064Z,12.27
2022-09-07T06:45:36.478Z,9.10
2022-09-07T06:48:06.016Z,13.07
2022-09-07T06:50:37.490Z,13.60
2022-09-07T06:55:59.312Z,11.38
2022-09-07T06:58:33.009Z,7.28
2022-09-07T07:01:06.271Z,8.50
2022-09-07T07:03:35.979Z,11.98
2022-09-07T07:06:07.690Z,6.57
2022-09-07T07:08:38.553Z,11.63
2022-09-07T07:11:09.121Z,12.75
2022-09-07T07:13:41.326Z,8.40
2022-09-07T07:16:12.100Z,9.50
2022-09-07T07:18:42.014Z,11.35
2022-09-07T07:21:15.434Z,8.50
2022-09-07T07:23:48.303Z,7.43
2022-09-07T07:26:38.242Z,7.28
2022-09-07T07:29:18.472Z,9.35
2022-09-07T07:32:32.039Z,6.68
2022-09-07T07:35:06.189Z,7.95
2022-09-07T07:37:36.965Z,6.93
2022-09-07T07:40:18.558Z,11.60
2022-09-07T07:42:55.402Z,10.10
2022-09-07T07:48:26.810Z,11.68
2022-09-07T07:51:06.439Z,8.80
2022-09-07T07:53:44.912Z,7.15
2022-09-07T07:56:16.491Z,9.57
2022-09-07T07:58:49.413Z,10.70
2022-09-07T08:01:21.841Z,11.57
2022-09-07T08:03:52.219Z,10.75
2022-09-07T08:06:22.535Z,8.40
2022-09-07T08:08:51.793Z,14.70
2022-09-07T08:11:23.299Z,11.60
2022-09-07T08:14:03.119Z,9.85
2022-09-07T08:16:32.500Z,8.45
2022-09-07T08:19:02.024Z,8.98
2022-09-07T08:21:31.397Z,9.45
2022-09-07T08:24:01.114Z,10.60
2022-09-07T08:26:31.742Z,7.63
2022-09-07T08:29:01.087Z,7.20
2022-09-07T08:31:30.491Z,8.20
2022-09-07T08:34:01.925Z,12.18
2022-09-07T08:36:32.044Z,13.65
2022-09-07T08:39:01.462Z,11.40
2022-09-07T08:41:47.839Z,11.18
2022-09-07T08:44:22.878Z,11.77
2022-09-07T08:46:55.377Z,7.90
2022-09-07T08:49:28.532Z,10.77
2022-09-07T08:52:00.809Z,9.48
2022-09-07T08:54:30.643Z,8.13
2022-09-07T08:59:59.880Z,11.23
2022-09-07T09:02:35.180Z,11.90
2022-09-07T09:05:17.973Z,9.30
2022-09-07T09:07:51.934Z,10.93
2022-09-07T09:10:27.040Z,10.32
2022-09-07T09:13:02.006Z,15.68
2022-09-07T09:15:38.393Z,7.78
2022-09-07T09:18:14.511Z,9.93
2022-09-07T09:20:52.183Z,11.10
2022-09-07T09:23:23.623Z,8.20
2022-09-07T09:25:54.644Z,12.75
2022-09-07T09:28:28.802Z,11.23
2022-09-07T09:31:01.388Z,12.70
2022-09-07T09:33:31.670Z,12.02
2022-09-07T09:36:01.748Z,14.65
2022-09-07T09:38:33.201Z,11.70
2022-09-07T09:41:05.028Z,8.90
2022-09-07T09:43:41.618Z,11.50
2022-09-07T09:46:21.923Z,12.20
2022-09-07T09:48:59.666Z,9.77
2022-09-07T09:54:24.021Z,5.57
2022-09-07T09:56:53.444Z,14.13
2022-09-07T10:05:23.024Z,10.10
2022-09-07T10:07:54.046Z,11.38
2022-09-07T10:10:24.793Z,7.93
2022-09-07T10:12:57.598Z,8.57
2022-09-07T10:15:40.682Z,7.35
2022-09-07T10:18:18.723Z,19.23
2022-09-07T10:20:48.012Z,9.55
2022-09-07T10:23:26.004Z,7.38
2022-09-07T10:25:59.430Z,5.68
2022-09-07T10:29:06.585Z,11.45
2022-09-07T10:31:22.649Z,9.60
2022-09-07T10:36:50.735Z,9.93
2022-09-07T10:39:25.824Z,6.82
2022-09-07T10:42:03.349Z,9.30
2022-09-07T10:44:41.151Z,9.80
2022-09-07T10:47:16.815Z,8.18
2022-09-07T10:52:44.656Z,9.52
2022-09-07T10:55:20.786Z,7.55
2022-09-07T10:58:01.950Z,6.78
2022-09-07T11:00:34.944Z,16.03
2022-09-07T11:03:30.580Z,13.15
2022-09-07T11:06:10.651Z,8.60
2022-09-07T11:12:06.219Z,11.55
2022-09-07T11:14:38.924Z,12.45
2022-09-07T11:17:13.744Z,11.20
2022-09-07T11:19:49.475Z,6.03
2022-09-07T11:22:26.311Z,6.80
2022-09-07T11:27:57.853Z,8.05
2022-09-07T11:30:29.629Z,9.45
2022-09-07T11:33:06.191Z,5.03
2022-09-07T11:36:20.163Z,6.25
2022-09-07T11:38:43.285Z,9.73
2022-09-07T11:41:20.739Z,8.55
2022-09-07T11:43:56.190Z,9.25
2022-09-07T11:46:33.073Z,6.78
2022-09-07T11:49:04.644Z,9.88
2022-09-07T11:51:44.218Z,9.95
2022-09-07T11:54:31.514Z,9.43
2022-09-07T11:57:03.485Z,8.75
2022-09-07T11:59:47.001Z,5.63
2022-09-07T12:02:57.728Z,9.70
2022-09-07T12:05:25.318Z,5.93
2022-09-07T12:08:07.291Z,7.13
2022-09-07T12:10:58.862Z,6.78
2022-09-07T12:13:57.910Z,10.50
2022-09-07T12:16:54.428Z,6.28
2022-09-07T12:19:34.083Z,4.45
2022-09-07T12:22:22.133Z,5.53
2022-09-07T12:25:23.453Z,4.90
2022-09-07T12:28:04.244Z,4.88
2022-09-07T12:31:10.070Z,6.25
2022-09-07T12:34:10.819Z,6.53
2022-09-07T12:36:53.597Z,6.15
2022-09-07T12:39:47.930Z,8.55
2022-09-07T12:42:37.498Z,7.85
2022-09-07T12:45:37.025Z,7.78
2022-09-07T12:48:14.390Z,4.15
2022-09-07T12:50:55.989Z,10.05
2022-09-07T12:53:31.294Z,5.32
2022-09-07T12:56:20.751Z,6.35
2022-09-07T12:59:33.831Z,9.70
2022-09-07T13:02:08.339Z,8.30
2022-09-07T13:05:03.354Z,8.73
2022-09-07T13:07:50.416Z,7.03
2022-09-07T13:10:51.806Z,6.93
2022-09-07T13:16:30.960Z,5.65
2022-09-07T13:19:02.790Z,7.13
2022-09-07T13:21:57.038Z,6.23
2022-09-07T13:24:47.907Z,6.95
2022-09-07T13:27:38.142Z,9.80
2022-09-07T13:30:39.501Z,7.38
2022-09-07T13:36:25.804Z,4.13
2022-09-07T13:38:55.655Z,6.90
2022-09-07T13:41:27.501Z,4.55
2022-09-07T13:44:00.370Z,6.82
2022-09-07T13:46:41.865Z,6.35
2022-09-07T13:49:19.211Z,4.30
2022-09-07T13:51:52.526Z,6.95
2022-09-07T13:54:24.300Z,5.55
2022-09-07T13:56:57.897Z,6.63
2022-09-07T13:59:28.820Z,8.00
2022-09-07T14:01:58.409Z,8.98
2022-09-07T14:04:29.024Z,6.32
2022-09-07T14:07:06.728Z,5.47
2022-09-07T14:09:35.916Z,3.85
2022-09-07T14:12:06.344Z,9.25
2022-09-07T14:14:35.471Z,8.25
2022-09-07T14:17:06.355Z,7.97
2022-09-07T14:19:39.230Z,11.57
2022-09-07T14:22:10.747Z,10.63
2022-09-07T14:24:41.306Z,7.80
2022-09-07T14:27:20.982Z,7.13
2022-09-07T14:29:50.128Z,9.43
2022-09-07T14:32:21.793Z,7.13
2022-09-07T14:34:51.150Z,8.82
2022-09-07T14:37:22.305Z,8.20
2022-09-07T14:39:52.927Z,4.47
2022-09-07T14:42:23.595Z,5.07
2022-09-07T14:45:12.970Z,6.13
2022-09-07T14:47:41.934Z,5.43
2022-09-07T14:50:20.585Z,8.15
2022-09-07T14:55:42.821Z,10.27
2022-09-07T14:58:13.148Z,7.97
2022-09-07T15:00:43.658Z,5.13
2022-09-07T15:03:26.934Z,6.68
2022-09-07T15:06:00.803Z,5.55
2022-09-07T15:08:39.973Z,3.05
2022-09-07T15:14:00.507Z,8.50
2022-09-07T15:16:31.195Z,8.80
2022-09-07T15:19:02.351Z,7.80
2022-09-07T15:21:32.890Z,8.23
2022-09-07T15:24:03.985Z,12.90
2022-09-07T15:29:29.178Z,6.18
2022-09-07T15:32:03.810Z,8.93
2022-09-07T15:34:34.725Z,9.80
2022-09-07T15:38:00.297Z,9.57
2022-09-07T15:39:54.940Z,8.63
2022-09-07T15:45:14.811Z,7.13
2022-09-07T15:47:50.611Z,5.18
2022-09-07T15:50:23.181Z,6.72
2022-09-07T15:55:24.349Z,5.38
2022-09-07T16:00:39.058Z,3.30
2022-09-07T16:03:08.829Z,5.50
2022-09-07T16:05:41.504Z,8.63
2022-09-07T16:08:25.980Z,5.47
2022-09-07T16:11:05.273Z,5.10
2022-09-07T16:13:35.410Z,4.90
2022-09-07T16:16:06.437Z,5.22
2022-09-07T16:18:35.975Z,6.07
2022-09-07T16:21:12.264Z,5.30
2022-09-07T16:23:43.195Z,5.55
2022-09-07T16:26:14.226Z,5.18
2022-09-07T16:28:44.303Z,9.20
2022-09-07T16:31:15.330Z,10.68
2022-09-07T16:33:44.550Z,6.15
2022-09-07T16:36:14.529Z,6.22
2022-09-07T16:38:45.928Z,10.02
2022-09-07T16:41:17.692Z,9.20
2022-09-07T16:43:47.389Z,7.00
2022-09-07T16:46:17.830Z,8.27
2022-09-07T16:48:47.521Z,8.02
2022-09-07T16:51:18.677Z,8.85
2022-09-07T16:53:48.928Z,9.10
2022-09-07T16:56:20.814Z,8.15
2022-09-07T16:58:51.066Z,5.95
2022-09-07T17:01:21.645Z,5.57
2022-09-07T17:03:51.463Z,6.35
2022-09-07T17:06:21.640Z,7.45
2022-09-07T17:08:50.938Z,8.20
2022-09-07T17:11:22.258Z,8.43
2022-09-07T17:13:51.551Z,6.07
2022-09-07T17:16:21.800Z,7.25
2022-09-07T17:21:41.926Z,5.80
2022-09-07T17:24:11.648Z,8.63
2022-09-07T17:26:42.584Z,7.93
2022-09-07T17:29:13.151Z,7.28
2022-09-07T17:34:32.323Z,9.18
2022-09-07T17:37:01.478Z,11.05
2022-09-07T17:39:31.221Z,10.77
2022-09-07T17:42:01.575Z,10.88
2022-09-07T17:44:35.996Z,13.35
2022-09-07T17:47:07.337Z,9.18
2022-09-07T17:49:36.236Z,8.27
2022-09-07T17:52:05.182Z,9.55
2022-09-07T17:54:34.139Z,10.10
2022-09-07T17:57:05.184Z,10.07
2022-09-07T18:02:24.423Z,12.02
2022-09-07T18:04:53.348Z,7.30
2022-09-07T18:07:22.249Z,11.88
2022-09-07T18:09:51.368Z,11.88
2022-09-07T18:12:22.661Z,12.82
2022-09-07T18:14:51.835Z,7.93
2022-09-07T18:17:20.775Z,10.52
2022-09-07T18:19:50.106Z,7.75
2022-09-07T18:22:19.069Z,10.60
2022-09-07T18:24:48.092Z,9.13
2022-09-07T18:27:17.629Z,9.73
2022-09-07T18:29:48.183Z,14.85
2022-09-07T18:32:17.770Z,8.68
2022-09-07T18:34:50.361Z,11.00
2022-09-07T18:37:19.770Z,11.27
2022-09-07T18:39:49.619Z,16.67
2022-09-07T18:42:19.129Z,15.23
2022-09-07T18:47:39.949Z,9.55
2022-09-07T18:50:09.249Z,9.70
2022-09-07T18:52:59.101Z,10.95
2022-09-07T18:55:27.737Z,13.85
2022-09-07T18:57:56.631Z,7.10
2022-09-07T19:00:27.730Z,10.23
2022-09-07T19:02:58.050Z,8.63
2022-09-07T19:08:17.655Z,13.30
2022-09-07T19:10:47.746Z,17.83
2022-09-07T19:13:16.990Z,6.25
2022-09-07T19:15:47.495Z,8.75
2022-09-07T19:18:16.395Z,10.80
2022-09-07T19:20:45.405Z,10.85
2022-09-07T19:23:14.492Z,7.50
2022-09-07T19:25:44.052Z,9.70
2022-09-07T19:28:16.031Z,10.25
2022-09-07T19:33:15.333Z,5.90
2022-09-07T19:35:44.751Z,11.25
2022-09-07T19:38:13.943Z,11.68
2022-09-07T19:40:43.130Z,7.40
2022-09-07T19:43:12.006Z,8.27
2022-09-07T19:45:41.511Z,8.63
2022-09-07T19:48:10.413Z,5.68
2022-09-07T19:50:41.056Z,8.38
2022-09-07T19:53:09.962Z,9.05
2022-09-07T19:55:38.914Z,11.07
2022-09-07T19:58:08.021Z,11.02
2022-09-07T20:00:39.457Z,8.30
2022-09-07T20:03:10.547Z,12.43
2022-09-07T20:05:41.091Z,9.60
2022-09-07T20:08:10.438Z,8.57
2022-09-07T20:10:39.628Z,8.77
2022-09-07T20:13:08.693Z,8.55
2022-09-07T20:15:42.287Z,14.65
2022-09-07T20:18:11.727Z,6.68
2022-09-07T20:20:42.514Z,16.08
2022-09-07T20:23:11.979Z,10.60
2022-09-07T20:25:40.962Z,11.20
2022-09-07T20:28:10.146Z,10.63
2022-09-07T20:30:43.833Z,7.60
2022-09-07T20:33:12.836Z,12.43
2022-09-07T20:35:43.666Z,12.25
2022-09-07T20:38:13.036Z,11.68
2022-09-07T20:40:53.400Z,9.85
2022-09-07T20:43:22.714Z,4.75
2022-09-07T20:45:52.014Z,2.88
2022-09-07T20:48:21.816Z,5.88
2022-09-07T20:50:57.240Z,2.92
2022-09-07T20:53:26.479Z,8.05
2022-09-07T20:56:02.898Z,7.53
2022-09-07T20:58:32.062Z,1.75
2022-09-07T21:01:01.350Z,3.58
2022-09-07T21:03:30.422Z,2.25
2022-09-07T21:06:04.798Z,1.98
2022-09-07T21:08:36.444Z,3.42
2022-09-07T21:11:06.867Z,3.83
2022-09-07T21:13:36.185Z,2.88
2022-09-07T21:16:06.430Z,1.80
2022-09-07T21:18:35.804Z,3.33
2022-09-07T21:21:21.645Z,1.13
2022-09-07T21:23:51.289Z,3.60
2022-09-07T21:26:22.230Z,2.85
2022-09-07T21:28:56.072Z,3.22
2022-09-07T21:31:25.156Z,3.08
2022-09-07T21:33:57.791Z,1.67
2022-09-07T21:36:28.533Z,1.73
2022-09-07T21:38:58.666Z,1.30
2022-09-07T21:41:27.588Z,1.27
2022-09-07T21:43:56.978Z,0.85
2022-09-07T21:46:26.479Z,3.65
2022-09-07T21:48:56.841Z,3.55
2022-09-07T21:51:25.941Z,1.13
2022-09-07T21:53:57.256Z,0.85
2022-09-07T21:56:26.820Z,2.33
2022-09-07T21:58:56.370Z,3.22
2022-09-07T22:01:25.844Z,2.10
2022-09-07T22:03:56.443Z,1.30
2022-09-07T22:06:27.429Z,0.80
2022-09-07T22:08:58.728Z,1.35
2022-09-07T22:11:28.409Z,0.93
2022-09-07T22:13:57.755Z,2.25
2022-09-07T22:16:27.249Z,1.05
2022-09-07T22:18:56.719Z,2.95
2022-09-07T22:21:28.162Z,1.55
2022-09-07T22:23:59.349Z,0.52
2022-09-07T22:26:29.597Z,1.70
2022-09-07T22:28:59.739Z,0.88
2022-09-07T22:31:29.448Z,1.27
2022-09-07T22:33:59.608Z,2.30
2022-09-07T22:36:29.898Z,1.48
2022-09-07T22:39:01.182Z,1.55
2022-09-07T22:41:31.185Z,3.20
2022-09-07T22:44:00.385Z,2.55
2022-09-07T22:46:30.477Z,1.75
2022-09-07T22:49:00.135Z,0.80
2022-09-07T22:51:29.515Z,4.68
2022-09-07T22:53:59.851Z,1.90
2022-09-07T22:56:31.164Z,1.58
2022-09-07T22:59:01.558Z,1.23
2022-09-07T23:01:31.981Z,3.38
2022-09-07T23:04:01.594Z,1.85
2022-09-07T23:06:31.249Z,4.10
2022-09-07T23:09:02.535Z,1.23
2022-09-07T23:11:31.516Z,1.87
2022-09-07T23:14:01.294Z,1.08
2022-09-07T23:16:31.477Z,1.90
2022-09-07T23:19:01.596Z,1.85
2022-09-07T23:21:31.028Z,2.92
2022-09-07T23:24:01.047Z,3.50
2022-09-07T23:26:32.680Z,1.92
2022-09-07T23:29:02.687Z,2.60
2022-09-07T23:31:33.886Z,3.60
2022-09-07T23:34:03.968Z,2.45
2022-09-07T23:36:33.323Z,1.88
2022-09-07T23:39:02.568Z,1.50
2022-09-07T23:41:33.071Z,1.17
2022-09-07T23:44:02.080Z,3.28
2022-09-07T23:46:31.217Z,2.88
2022-09-07T23:49:00.331Z,3.95
2022-09-07T23:51:29.893Z,1.98
2022-09-07T23:53:59.303Z,2.80
2022-09-07T23:56:28.688Z,4.15
2022-09-07T23:58:59.075Z,4.47
